Time;durP1;ratioP1;P1;durP2;ratioP2;P2;SDS_P1;SDS_P2;PMS_P1;PMS_P2;Temp;Humidity;BMP_temperature;BMP_pressure;BME280_temperature;BME280_humidity;BME280_pressure;Samples;Min_cycle;Max_cycle;Signal;HPM_P1;HPM_P2
2022/10/28 00:00:46;;;;;;;0.85;0.85;;;;;;;14.27;100.00;101492.41;5056637;28;20187;-72
2022/10/28 00:03:13;;;;;;;1.10;1.00;;;;;;;14.24;100.00;101497.56;5075470;28;20643;-72
2022/10/28 00:05:41;;;;;;;1.20;1.10;;;;;;;14.29;100.00;101485.50;5077727;28;20202;-72
2022/10/28 00:08:08;;;;;;;1.02;1.00;;;;;;;14.18;100.00;101494.81;5077367;28;20230;-72
2022/10/28 00:10:34;;;;;;;1.00;1.00;;;;;;;14.18;100.00;101491.31;5076488;28;20205;-72
2022/10/28 00:13:01;;;;;;;1.00;1.00;;;;;;;14.17;100.00;101482.59;5074158;28;20622;-72
2022/10/28 00:15:28;;;;;;;1.30;1.20;;;;;;;14.17;100.00;101485.22;5077420;28;20213;-72
2022/10/28 00:17:55;;;;;;;1.20;1.10;;;;;;;14.17;100.00;101480.00;5074008;28;20199;-72
2022/10/28 00:20:21;;;;;;;0.90;0.90;;;;;;;13.80;100.00;101409.59;5074790;28;20207;-72
2022/10/28 00:22:50;;;;;;;1.20;1.10;;;;;;;14.29;100.00;101480.28;5075778;28;20209;-73
2022/10/28 00:25:23;;;;;;;1.17;1.08;;;;;;;14.24;100.00;101481.91;5074117;28;20202;-71
2022/10/28 00:27:50;;;;;;;1.20;1.10;;;;;;;14.26;100.00;101480.22;5074999;28;20206;-71
2022/10/28 00:30:16;;;;;;;1.55;1.23;;;;;;;14.26;100.00;101472.41;5075245;28;20191;-71
2022/10/28 00:32:43;;;;;;;1.35;1.13;;;;;;;14.25;100.00;101462.81;5075171;28;20267;-71
2022/10/28 00:35:10;;;;;;;2.10;1.83;;;;;;;14.31;100.00;101481.19;5075547;28;20207;-71
2022/10/28 00:37:37;;;;;;;0.93;0.93;;;;;;;14.30;100.00;101471.59;5075802;28;20241;-71
2022/10/28 00:40:06;;;;;;;1.45;1.20;;;;;;;14.47;100.00;101473.75;5074727;28;20195;-71
2022/10/28 00:42:33;;;;;;;0.90;0.90;;;;;;;14.40;100.00;101467.50;5075932;28;20228;-71
2022/10/28 00:45:01;;;;;;;0.90;0.90;;;;;;;14.43;100.00;101466.69;5078882;28;20199;-71
2022/10/28 00:47:41;;;;;;;0.98;0.98;;;;;;;14.52;100.00;101477.34;5075131;28;20199;-71
2022/10/28 00:50:18;;;;;;;1.23;1.13;;;;;;;14.48;100.00;101471.16;5077302;28;20223;-71
2022/10/28 00:52:49;;;;;;;1.35;1.25;;;;;;;14.41;100.00;101457.97;5074593;28;20199;-72
2022/10/28 00:55:18;;;;;;;1.20;1.10;;;;;;;14.48;100.00;101465.94;5075817;28;20251;-72
2022/10/28 00:57:46;;;;;;;1.10;1.00;;;;;;;14.46;100.00;101472.84;5071498;28;20743;-72
2022/10/28 01:00:14;;;;;;;1.10;1.00;;;;;;;14.33;99.63;101440.38;5055645;28;20201;-72
2022/10/28 01:02:46;;;;;;;0.98;0.95;;;;;;;14.51;99.86;101466.00;5075503;28;20206;-72
2022/10/28 01:05:15;;;;;;;1.30;1.20;;;;;;;14.49;100.00;101469.41;5077856;28;20206;-71
2022/10/28 01:07:42;;;;;;;1.33;1.10;;;;;;;14.43;99.87;101466.69;5074001;28;20235;-72
2022/10/28 01:10:10;;;;;;;1.52;1.20;;;;;;;14.37;100.00;101457.91;5073417;28;20671;-71
2022/10/28 01:12:51;;;;;;;0.75;0.75;;;;;;;14.53;99.81;101466.03;5075095;28;20535;-71
2022/10/28 01:15:33;;;;;;;0.88;0.88;;;;;;;14.53;99.57;101466.03;5077344;28;20195;-72
2022/10/28 01:18:06;;;;;;;1.08;1.00;;;;;;;14.53;99.17;101463.41;5074452;28;20211;-71
2022/10/28 01:20:58;;;;;;;0.85;0.85;;;;;;;14.58;98.16;101461.78;5074569;28;20202;-72
2022/10/28 01:23:35;;;;;;;0.95;0.95;;;;;;;14.54;98.29;101457.34;4959798;28;20775;-71
2022/10/28 01:26:28;;;;;;;1.23;1.00;;;;;;;14.45;98.09;101434.53;4991770;28;20720;-72
2022/10/28 01:29:22;;;;;;;0.90;0.90;;;;;;;14.62;98.00;101463.63;4992705;28;20201;-72
2022/10/28 01:31:54;;;;;;;1.02;0.98;;;;;;;14.47;97.34;101438.09;4994027;28;20248;-71
2022/10/28 01:34:31;;;;;;;0.93;0.93;;;;;;;14.55;97.47;101456.53;4996372;28;20228;-71
2022/10/28 01:37:06;;;;;;;1.08;1.00;;;;;;;14.48;97.65;101438.97;4988155;28;20231;-71
2022/10/28 01:39:38;;;;;;;0.90;0.90;;;;;;;14.52;97.64;101462.53;4991774;28;20946;-71
2022/10/28 01:42:14;;;;;;;1.20;1.10;;;;;;;14.55;97.54;101461.75;4992064;28;20681;-71
2022/10/28 01:44:48;;;;;;;1.20;1.10;;;;;;;14.44;97.56;101452.78;4995450;28;20214;-71
2022/10/28 01:47:22;;;;;;;0.90;0.90;;;;;;;14.53;97.19;101473.84;4991691;28;20200;-71
2022/10/28 01:49:54;;;;;;;1.20;1.10;;;;;;;14.41;97.48;101458.84;4994952;28;20208;-71
2022/10/28 01:52:25;;;;;;;1.10;1.00;;;;;;;14.24;98.39;101470.56;4991285;28;20209;-72
2022/10/28 01:54:57;;;;;;;0.95;0.95;;;;;;;14.39;99.88;101489.22;4990468;28;20209;-71
2022/10/28 01:57:28;;;;;;;1.00;0.90;;;;;;;14.27;100.00;101484.56;4987458;28;20221;-71
2022/10/28 01:59:56;;;;;;;1.10;1.00;;;;;;;14.11;100.00;101479.88;5003150;28;20207;-70
2022/10/28 02:02:24;;;;;;;1.25;1.15;;;;;;;14.08;100.00;101478.91;5070708;28;20186;-71
2022/10/28 02:04:51;;;;;;;1.00;1.00;;;;;;;13.89;100.00;101477.59;5074074;28;20205;-71
2022/10/28 02:07:18;;;;;;;1.20;1.10;;;;;;;13.87;100.00;101480.19;5074797;28;20195;-70
2022/10/28 02:10:10;;;;;;;1.23;1.02;;;;;;;13.98;100.00;101482.16;5074536;28;20209;-71
2022/10/28 02:12:38;;;;;;;1.10;1.00;;;;;;;13.84;100.00;101479.22;5011180;28;20208;-71
2022/10/28 02:15:20;;;;;;;1.23;1.10;;;;;;;13.88;100.00;101475.81;5009551;28;20554;-71
2022/10/28 02:18:13;;;;;;;2.00;1.25;;;;;;;13.86;100.00;101477.53;4960036;28;20231;-71
2022/10/28 02:20:48;;;;;;;1.10;1.00;;;;;;;13.82;100.00;101476.56;5011230;28;20227;-71
2022/10/28 02:23:26;;;;;;;0.85;0.85;;;;;;;13.79;100.00;101475.63;5014322;28;20210;-72
2022/10/28 02:25:58;;;;;;;0.88;0.88;;;;;;;13.72;100.00;101471.09;5010751;28;20200;-71
2022/10/28 02:28:35;;;;;;;1.20;1.10;;;;;;;13.71;100.00;101474.53;5009928;28;20196;-71
2022/10/28 02:31:07;;;;;;;0.90;0.90;;;;;;;13.62;100.00;101467.41;5012546;28;20247;-71
2022/10/28 02:33:40;;;;;;;0.90;0.90;;;;;;;13.57;100.00;101465.50;5013241;28;20291;-72
2022/10/28 02:36:12;;;;;;;2.45;2.28;;;;;;;13.31;100.00;101468.31;5013280;28;20212;-71
2022/10/28 02:38:42;;;;;;;1.20;1.00;;;;;;;13.44;100.00;101458.22;5014622;28;20233;-71
2022/10/28 02:41:16;;;;;;;8.00;1.67;;;;;;;13.46;100.00;101461.75;5014871;28;20204;-71
2022/10/28 02:43:45;;;;;;;1.23;1.10;;;;;;;13.43;100.00;101469.47;4998772;28;20702;-71
2022/10/28 02:46:14;;;;;;;1.15;1.00;;;;;;;13.38;100.00;101461.53;5006462;28;20196;-71
2022/10/28 02:48:46;;;;;;;0.90;0.90;;;;;;;13.39;100.00;101463.31;5022848;28;20670;-71
2022/10/28 02:51:17;;;;;;;1.00;1.00;;;;;;;13.34;100.00;101470.16;5077205;28;20242;-71
2022/10/28 02:53:56;;;;;;;1.33;1.20;;;;;;;13.33;100.00;101461.44;5074396;28;21854;-71
2022/10/28 02:56:22;;;;;;;0.80;0.80;;;;;;;13.00;100.00;101451.81;5078032;28;20724;-72
2022/10/28 02:58:50;;;;;;;1.02;1.00;;;;;;;12.80;100.00;101433.06;5075450;28;20191;-71
2022/10/28 03:01:16;;;;;;;1.20;1.10;;;;;;;12.96;100.00;101466.47;5074185;28;20199;-71
2022/10/28 03:03:45;;;;;;;0.90;0.90;;;;;;;13.02;100.00;101471.84;5073987;28;20256;-70
2022/10/28 03:06:12;;;;;;;1.10;1.00;;;;;;;12.91;100.00;101473.28;5074009;28;20207;-72
2022/10/28 03:08:38;;;;;;;2.65;1.92;;;;;;;12.95;100.00;101467.31;5073687;28;20202;-72
2022/10/28 03:11:06;;;;;;;0.95;0.95;;;;;;;12.85;100.00;101479.19;5080403;28;20202;-72
2022/10/28 03:13:32;;;;;;;1.10;1.00;;;;;;;12.76;100.00;101473.75;5082764;28;20561;-72
2022/10/28 03:15:59;;;;;;;1.20;1.10;;;;;;;12.96;100.00;101465.59;5042268;28;20191;-72
2022/10/28 03:18:26;;;;;;;1.00;1.00;;;;;;;12.87;100.00;101466.22;5038300;28;20223;-72
2022/10/28 03:20:54;;;;;;;0.90;0.90;;;;;;;13.10;100.00;101461.66;5075091;28;20569;-72
2022/10/28 03:23:21;;;;;;;0.90;0.90;;;;;;;12.65;100.00;101469.94;5074988;28;20205;-72
2022/10/28 03:25:48;;;;;;;0.80;0.80;;;;;;;12.69;100.00;101471.81;5076262;28;20197;-72
2022/10/28 03:28:14;;;;;;;0.90;0.90;;;;;;;12.66;100.00;101473.44;5069445;28;20696;-73
2022/10/28 03:30:42;;;;;;;1.10;1.00;;;;;;;12.68;100.00;101461.34;5073539;28;20768;-72
2022/10/28 03:33:09;;;;;;;1.10;1.10;;;;;;;12.63;100.00;101479.41;5075829;28;20202;-71
2022/10/28 03:35:35;;;;;;;1.58;1.45;;;;;;;12.78;100.00;101461.63;5073715;28;20198;-71
2022/10/28 03:38:04;;;;;;;1.20;1.10;;;;;;;13.86;100.00;101444.53;5075127;28;20225;-72
2022/10/28 03:40:30;;;;;;;1.15;1.05;;;;;;;13.16;100.00;101381.97;5050143;28;20679;-72
2022/10/28 03:42:57;;;;;;;0.95;0.95;;;;;;;13.35;100.00;101485.81;5072242;28;20206;-73
2022/10/28 03:45:24;;;;;;;1.00;1.00;;;;;;;13.13;100.00;101488.66;5023264;28;20198;-72
2022/10/28 03:47:51;;;;;;;1.20;1.10;;;;;;;12.93;100.00;101492.44;5073911;28;20195;-71
2022/10/28 03:50:17;;;;;;;1.35;1.25;;;;;;;12.74;100.00;101484.91;5075212;28;20649;-73
2022/10/28 03:52:45;;;;;;;1.42;1.20;;;;;;;12.76;100.00;101498.88;5078209;28;21647;-72
2022/10/28 03:55:13;;;;;;;1.45;1.35;;;;;;;12.77;100.00;101500.66;5072879;28;20195;-72
2022/10/28 03:57:40;;;;;;;0.98;0.98;;;;;;;12.57;100.00;101506.97;5077201;28;20226;-72
2022/10/28 04:00:08;;;;;;;1.20;1.10;;;;;;;12.49;100.00;101488.53;5075403;28;20202;-72
2022/10/28 04:02:34;;;;;;;1.60;1.25;;;;;;;12.34;100.00;101494.16;5078430;28;20677;-72
2022/10/28 04:05:01;;;;;;;1.20;1.10;;;;;;;12.34;100.00;101501.97;5078681;28;20202;-72
2022/10/28 04:07:28;;;;;;;1.20;1.10;;;;;;;12.29;100.00;101500.06;5075521;28;20293;-72
2022/10/28 04:09:55;;;;;;;1.20;1.10;;;;;;;12.11;100.00;101473.50;5077210;28;20213;-72
2022/10/28 04:12:23;;;;;;;1.02;1.00;;;;;;;12.37;100.00;101498.59;5074158;28;20244;-72
2022/10/28 04:14:50;;;;;;;1.55;1.13;;;;;;;12.25;100.00;101499.09;5079955;28;20776;-72
2022/10/28 04:17:17;;;;;;;1.13;1.02;;;;;;;12.28;100.00;101500.91;5077208;28;20225;-72
2022/10/28 04:19:44;;;;;;;1.25;1.15;;;;;;;12.23;100.00;101495.56;5075056;28;20203;-73
2022/10/28 04:22:10;;;;;;;1.17;1.08;;;;;;;12.27;100.00;101494.81;5077856;28;20210;-72
2022/10/28 04:24:37;;;;;;;1.50;1.20;;;;;;;12.27;100.00;101493.94;5076489;28;20206;-72
2022/10/28 04:27:04;;;;;;;1.10;1.00;;;;;;;12.24;100.00;101481.72;5076067;28;20205;-74
2022/10/28 04:29:33;;;;;;;1.20;1.10;;;;;;;12.26;100.00;101461.84;5074792;28;20229;-72
2022/10/28 04:31:59;;;;;;;1.25;1.10;;;;;;;12.20;100.00;101458.19;5074503;28;20364;-73
2022/10/28 04:34:26;;;;;;;1.10;1.00;;;;;;;12.47;100.00;101497.13;5075340;28;20194;-72
2022/10/28 04:36:53;;;;;;;1.10;1.00;;;;;;;12.35;100.00;101464.72;5076428;28;20221;-73
2022/10/28 04:39:20;;;;;;;1.00;0.90;;;;;;;12.56;100.00;101493.09;5076864;28;20195;-73
2022/10/28 04:41:47;;;;;;;1.20;1.10;;;;;;;12.60;100.00;101496.66;5072917;28;20199;-71
2022/10/28 04:44:14;;;;;;;1.27;1.17;;;;;;;12.62;100.00;101488.06;5058830;28;20654;-72
2022/10/28 04:46:42;;;;;;;2.15;1.30;;;;;;;12.81;100.00;101494.66;5076297;28;20207;-72
2022/10/28 04:49:09;;;;;;;0.90;0.90;;;;;;;12.75;100.00;101503.19;5077975;28;20202;-72
2022/10/28 04:51:36;;;;;;;1.10;1.00;;;;;;;12.80;100.00;101501.63;5080864;28;20326;-73
2022/10/28 04:54:03;;;;;;;1.05;0.98;;;;;;;12.86;100.00;101498.31;5076208;28;20218;-72
2022/10/28 04:56:32;;;;;;;1.10;1.00;;;;;;;12.90;100.00;101500.16;5074428;28;20616;-72
2022/10/28 04:58:58;;;;;;;1.13;1.02;;;;;;;12.97;100.00;101504.69;5074897;28;20307;-72
2022/10/28 05:01:25;;;;;;;1.20;1.10;;;;;;;13.00;100.00;101504.78;5071292;28;20206;-72
2022/10/28 05:03:53;;;;;;;0.85;0.85;;;;;;;13.34;100.00;101470.16;5076900;28;20210;-73
2022/10/28 05:06:20;;;;;;;1.23;1.10;;;;;;;12.96;100.00;101421.31;5079362;28;20666;-73
2022/10/28 05:08:47;;;;;;;1.20;1.10;;;;;;;13.40;100.00;101509.38;5074813;28;20207;-73
2022/10/28 05:11:14;;;;;;;1.20;1.10;;;;;;;13.49;100.00;101508.72;5070594;28;20198;-72
2022/10/28 05:13:41;;;;;;;1.15;1.05;;;;;;;13.58;100.00;101511.59;5081831;28;20232;-73
2022/10/28 05:16:08;;;;;;;1.20;1.10;;;;;;;13.57;100.00;101484.63;5079005;28;20259;-72
2022/10/28 05:18:35;;;;;;;0.90;0.90;;;;;;;13.64;100.00;101517.81;5057499;28;20227;-72
2022/10/28 05:21:03;;;;;;;1.13;1.00;;;;;;;13.71;100.00;101493.69;5057362;28;20205;-73
2022/10/28 05:23:30;;;;;;;1.25;1.10;;;;;;;13.72;100.00;101520.63;5075076;28;20668;-73
2022/10/28 05:25:57;;;;;;;1.13;1.00;;;;;;;13.82;100.00;101501.75;5074110;28;20685;-73
2022/10/28 05:28:24;;;;;;;1.10;1.00;;;;;;;14.02;100.00;101510.94;5080690;28;20215;-70
2022/10/28 05:30:50;;;;;;;0.90;0.90;;;;;;;14.07;100.00;101517.16;5071624;28;21847;-71
2022/10/28 05:33:17;;;;;;;0.80;0.80;;;;;;;14.12;100.00;101527.72;5078592;28;20645;-70
2022/10/28 05:35:44;;;;;;;0.90;0.90;;;;;;;14.04;100.00;101492.72;5056883;28;20231;-72
2022/10/28 05:38:12;;;;;;;0.85;0.85;;;;;;;14.39;100.00;101525.75;5071032;28;20226;-72
2022/10/28 05:40:39;;;;;;;0.80;0.80;;;;;;;14.36;100.00;101531.81;5074271;28;20655;-71
2022/10/28 05:43:08;;;;;;;1.08;1.00;;;;;;;14.30;100.00;101518.56;5070214;28;20191;-71
2022/10/28 05:45:35;;;;;;;1.10;1.00;;;;;;;14.41;100.00;101536.25;5071168;28;20195;-70
2022/10/28 05:48:02;;;;;;;0.82;0.82;;;;;;;14.44;100.00;101536.31;5063445;28;20670;-71
2022/10/28 05:50:28;;;;;;;1.13;1.02;;;;;;;14.45;100.00;101527.66;5070489;28;20226;-70
2022/10/28 05:52:57;;;;;;;0.80;0.80;;;;;;;14.42;100.00;101511.88;5033500;28;20288;-71
2022/10/28 05:55:28;;;;;;;0.90;0.90;;;;;;;14.52;100.00;101522.56;5070376;28;20202;-71
2022/10/28 05:57:55;;;;;;;1.63;1.52;;;;;;;14.23;100.00;101532.31;5070243;28;20226;-71
2022/10/28 06:00:25;;;;;;;1.45;1.42;;;;;;;14.35;100.00;101543.06;5070216;28;20206;-71
2022/10/28 06:02:51;;;;;;;1.00;0.93;;;;;;;14.13;100.00;101543.38;5070194;28;20209;-71
2022/10/28 06:05:18;;;;;;;1.00;1.00;;;;;;;13.97;100.00;101549.09;5056145;28;20202;-71
2022/10/28 06:07:45;;;;;;;0.85;0.85;;;;;;;13.93;100.00;101535.91;5069692;28;20217;-71
2022/10/28 06:10:12;;;;;;;1.10;1.10;;;;;;;13.95;100.00;101542.94;5070147;28;20206;-71
2022/10/28 06:12:40;;;;;;;0.80;0.80;;;;;;;13.98;100.00;101534.31;5070330;28;20210;-72
2022/10/28 06:15:08;;;;;;;0.90;0.90;;;;;;;13.88;100.00;101543.63;5069920;28;20203;-71
2022/10/28 06:17:36;;;;;;;0.95;0.95;;;;;;;14.06;100.00;101538.84;5069812;28;20226;-72
2022/10/28 06:20:04;;;;;;;0.80;0.80;;;;;;;14.53;100.00;101531.28;5069912;28;20663;-74
2022/10/28 06:22:31;;;;;;;0.80;0.80;;;;;;;14.49;100.00;101496.41;5063623;28;20204;-72
2022/10/28 06:24:57;;;;;;;0.90;0.90;;;;;;;14.66;100.00;101551.63;5062643;28;20679;-72
2022/10/28 06:27:24;;;;;;;0.90;0.90;;;;;;;14.39;100.00;101571.00;5069719;28;20628;-73
2022/10/28 06:29:52;;;;;;;1.50;1.20;;;;;;;14.39;100.00;101557.06;5070012;28;20234;-73
2022/10/28 06:32:19;;;;;;;1.00;1.00;;;;;;;14.16;100.00;101572.13;5069610;28;20199;-72
2022/10/28 06:34:46;;;;;;;0.98;0.95;;;;;;;14.10;100.00;101561.56;5069703;28;20210;-73
2022/10/28 06:37:13;;;;;;;0.93;0.90;;;;;;;14.18;100.00;101575.69;5069936;28;20207;-73
2022/10/28 06:39:39;;;;;;;1.00;1.00;;;;;;;14.25;100.00;101564.56;5034524;28;20205;-73
2022/10/28 06:42:06;;;;;;;0.90;0.90;;;;;;;14.42;100.00;101571.91;5069812;28;20598;-73
2022/10/28 06:44:36;;;;;;;0.93;0.93;;;;;;;14.54;100.00;101574.81;5034463;28;20682;-73
2022/10/28 06:47:04;;;;;;;0.93;0.93;;;;;;;14.47;100.00;101571.19;5034058;28;20198;-72
2022/10/28 06:49:31;;;;;;;0.90;0.90;;;;;;;14.46;100.00;101571.13;5069571;28;20214;-73
2022/10/28 06:51:58;;;;;;;0.80;0.80;;;;;;;14.57;100.00;101569.66;5069897;28;20231;-73
2022/10/28 06:54:25;;;;;;;2.15;2.05;;;;;;;14.20;100.00;101495.72;5069708;28;20215;-72
2022/10/28 06:56:52;;;;;;;0.90;0.90;;;;;;;14.63;100.00;101560.22;5069657;28;20596;-73
2022/10/28 06:59:18;;;;;;;0.80;0.80;;;;;;;14.84;100.00;101588.53;5050886;28;20618;-73
2022/10/28 07:01:45;;;;;;;1.23;1.15;;;;;;;14.88;100.00;101582.53;5034062;28;20195;-73
2022/10/28 07:04:13;;;;;;;1.17;1.08;;;;;;;14.90;100.00;101588.69;5069346;28;20206;-72
2022/10/28 07:06:40;;;;;;;0.90;0.90;;;;;;;14.69;100.00;101554.28;5069449;28;20195;-73
2022/10/28 07:09:07;;;;;;;1.02;1.00;;;;;;;14.97;100.00;101577.53;5069347;28;20201;-72
2022/10/28 07:11:34;;;;;;;0.73;0.73;;;;;;;15.09;100.00;101580.38;5069577;28;20198;-73
2022/10/28 07:14:01;;;;;;;0.90;0.90;;;;;;;15.19;100.00;101587.56;5033849;28;20202;-73
2022/10/28 07:16:28;;;;;;;0.88;0.88;;;;;;;15.00;100.00;101566.25;5069418;28;20714;-72
2022/10/28 07:18:54;;;;;;;1.17;1.00;;;;;;;15.22;100.00;101590.25;5070761;28;20706;-73
2022/10/28 07:21:27;;;;;;;0.80;0.80;;;;;;;15.30;100.00;101588.66;5073355;28;20274;-72
2022/10/28 07:23:54;;;;;;;0.90;0.90;;;;;;;15.28;100.00;101589.47;5073021;28;20203;-73
2022/10/28 07:26:21;;;;;;;0.82;0.82;;;;;;;15.34;99.85;101585.25;5073257;28;20231;-73
2022/10/28 07:28:48;;;;;;;0.90;0.90;;;;;;;15.44;98.56;101585.44;5037670;28;20206;-73
2022/10/28 07:31:15;;;;;;;1.10;1.00;;;;;;;15.32;96.84;101589.56;5037675;28;20588;-72
2022/10/28 07:33:42;;;;;;;1.27;1.25;;;;;;;15.19;97.73;101574.50;5073109;28;20221;-74
2022/10/28 07:36:10;;;;;;;1.75;1.23;;;;;;;15.44;96.76;101577.59;5072777;28;20202;-73
2022/10/28 07:38:38;;;;;;;0.90;0.90;;;;;;;15.63;95.43;101582.34;5073027;28;20728;-73
2022/10/28 07:41:06;;;;;;;0.70;0.70;;;;;;;15.54;94.61;101587.41;5072955;28;20211;-73
2022/10/28 07:43:36;;;;;;;1.50;1.40;;;;;;;15.64;93.89;101569.31;5072808;28;20198;-72
2022/10/28 07:46:03;;;;;;;3.47;2.17;;;;;;;15.74;98.18;101578.19;5072789;28;20713;-72
2022/10/28 07:48:29;;;;;;;0.90;0.90;;;;;;;15.68;93.32;101585.94;5073167;28;20194;-72
2022/10/28 07:50:59;;;;;;;1.45;1.35;;;;;;;15.63;93.39;101566.66;5072851;28;20238;-72
2022/10/28 07:53:26;;;;;;;0.90;0.90;;;;;;;15.80;92.43;101578.31;5072782;28;20195;-72
2022/10/28 07:55:58;;;;;;;0.80;0.80;;;;;;;16.18;91.47;101574.59;5072604;28;20571;-72
2022/10/28 07:58:25;;;;;;;0.80;0.80;;;;;;;15.95;90.72;101557.63;5072473;28;20234;-73
2022/10/28 08:00:52;;;;;;;0.90;0.90;;;;;;;16.11;90.55;101577.09;5037273;28;20202;-72
2022/10/28 08:03:19;;;;;;;1.13;1.02;;;;;;;16.14;89.87;101567.56;5072191;28;20214;-71
2022/10/28 08:05:46;;;;;;;0.93;0.93;;;;;;;16.24;89.03;101569.44;5072333;28;20206;-72
2022/10/28 08:08:13;;;;;;;0.80;0.80;;;;;;;16.30;88.61;101580.00;5072137;28;20210;-71
2022/10/28 08:10:40;;;;;;;0.93;0.93;;;;;;;16.40;88.64;101591.53;5036788;28;20202;-71
2022/10/28 08:13:09;;;;;;;1.23;1.23;;;;;;;16.68;87.58;101587.59;5072191;28;20199;-73
2022/10/28 08:15:36;;;;;;;1.65;1.55;;;;;;;16.65;87.04;101577.09;5072290;28;20221;-71
2022/10/28 08:18:03;;;;;;;0.90;0.90;;;;;;;16.61;98.41;101580.53;5071891;28;20206;-74
2022/10/28 08:20:30;;;;;;;0.90;0.90;;;;;;;16.96;98.47;101568.78;5072043;28;20210;-71
2022/10/28 08:22:58;;;;;;;1.23;1.08;;;;;;;17.16;86.46;101583.00;5064573;28;20215;-73
2022/10/28 08:25:25;;;;;;;0.82;0.82;;;;;;;16.88;85.82;101533.72;5035943;28;20210;-71
2022/10/28 08:27:52;;;;;;;1.90;1.77;;;;;;;17.18;84.22;101591.78;5061157;28;20276;-71
2022/10/28 08:30:20;;;;;;;0.70;0.70;;;;;;;17.38;83.98;101560.53;5063353;28;20207;-71
2022/10/28 08:32:47;;;;;;;0.90;0.90;;;;;;;17.42;83.65;101575.44;5066065;28;20208;-72
2022/10/28 08:35:13;;;;;;;0.98;0.93;;;;;;;17.49;87.67;101571.13;5071604;28;20198;-72
2022/10/28 08:37:42;;;;;;;0.90;0.90;;;;;;;17.57;84.47;101577.38;5071813;28;20257;-73
2022/10/28 08:40:12;;;;;;;0.90;0.90;;;;;;;17.71;83.92;101576.66;5057266;28;20246;-71
2022/10/28 08:42:46;;;;;;;1.35;1.20;;;;;;;17.84;83.33;101573.28;5071876;28;20198;-71
2022/10/28 08:45:24;;;;;;;0.82;0.82;;;;;;;18.03;81.89;101578.69;5035893;28;20202;-73
2022/10/28 08:48:05;;;;;;;0.95;0.95;;;;;;;18.09;81.25;101577.00;5059642;28;20285;-71
2022/10/28 08:50:38;;;;;;;1.20;1.10;;;;;;;17.98;81.22;101568.16;5071124;28;20230;-70
2022/10/28 08:53:14;;;;;;;1.20;1.10;;;;;;;18.23;82.45;101582.34;5071618;28;20213;-71
2022/10/28 08:55:44;;;;;;;17.05;7.20;;;;;;;18.34;81.53;101578.94;5057314;28;20205;-71
2022/10/28 08:58:16;;;;;;;1.10;1.10;;;;;;;18.53;78.59;101579.09;5071091;28;20615;-71
2022/10/28 09:00:48;;;;;;;0.90;0.90;;;;;;;18.61;76.85;101580.03;5071235;28;20276;-71
2022/10/28 09:03:21;;;;;;;1.20;1.10;;;;;;;18.62;76.62;101576.56;5071250;28;20205;-71
2022/10/28 09:05:53;;;;;;;0.90;0.90;;;;;;;18.47;76.27;101574.69;5070940;28;20191;-71
2022/10/28 09:08:23;;;;;;;0.90;0.90;;;;;;;18.75;75.82;101586.25;5037205;28;20683;-71
2022/10/28 09:11:26;;;;;;;1.00;1.00;;;;;;;18.97;74.47;101576.75;5070952;28;20223;-72
2022/10/28 09:14:06;;;;;;;0.80;0.80;;;;;;;18.95;73.42;101574.09;4993711;28;20208;-72
2022/10/28 09:16:44;;;;;;;0.75;0.75;;;;;;;19.14;71.21;101575.94;4963239;28;20200;-72
2022/10/28 09:19:19;;;;;;;0.90;0.90;;;;;;;19.12;70.32;101576.81;5006127;28;20232;-73
2022/10/28 09:21:48;;;;;;;0.90;0.90;;;;;;;19.11;68.97;101554.91;5008966;28;20211;-72
2022/10/28 09:24:20;;;;;;;1.13;1.10;;;;;;;19.44;67.94;101571.69;4960029;28;20676;-72
2022/10/28 09:26:57;;;;;;;1.00;1.00;;;;;;;19.58;65.38;101568.22;4967285;28;20292;-72
2022/10/28 09:29:35;;;;;;;0.90;0.90;;;;;;;19.70;65.40;101562.97;4992131;28;20231;-72
2022/10/28 09:32:13;;;;;;;1.00;1.00;;;;;;;19.88;70.56;101561.22;5008732;28;20207;-71
2022/10/28 09:34:44;;;;;;;1.00;1.00;;;;;;;19.82;60.88;101561.22;5005043;28;20248;-71
2022/10/28 09:37:17;;;;;;;0.90;0.90;;;;;;;19.88;59.30;101556.84;4999206;28;20204;-71
2022/10/28 09:39:46;;;;;;;0.90;0.90;;;;;;;20.00;61.12;101551.59;5008454;28;20232;-71
2022/10/28 09:42:19;;;;;;;0.80;0.80;;;;;;;19.97;57.26;101541.06;5008381;28;20216;-71
2022/10/28 09:44:50;;;;;;;1.05;1.05;;;;;;;20.03;56.01;101530.50;5008271;28;20619;-71
2022/10/28 09:47:25;;;;;;;0.80;0.80;;;;;;;19.90;55.99;101549.84;5008650;28;20204;-71
2022/10/28 09:49:55;;;;;;;1.55;1.45;;;;;;;19.96;55.64;101554.19;5015448;28;20768;-72
2022/10/28 09:52:27;;;;;;;1.15;1.05;;;;;;;20.22;59.66;101553.34;5061196;28;20349;-74
2022/10/28 09:54:55;;;;;;;0.90;0.90;;;;;;;20.34;60.88;101538.41;5066468;28;20213;-74
2022/10/28 09:57:31;;;;;;;1.20;1.10;;;;;;;20.40;57.89;101541.03;5061495;28;20200;-74
2022/10/28 09:59:58;;;;;;;1.40;1.08;;;;;;;20.41;55.77;101535.75;5066210;28;20249;-72
2022/10/28 10:02:30;;;;;;;1.10;1.00;;;;;;;20.48;52.84;101531.34;5070242;28;20312;-72
2022/10/28 10:04:58;;;;;;;0.90;0.90;;;;;;;20.20;54.83;101476.03;5069862;28;20210;-72
2022/10/28 10:07:37;;;;;;;0.95;0.93;;;;;;;20.71;55.12;101532.16;5070293;28;20663;-72
2022/10/28 10:10:12;;;;;;;0.80;0.80;;;;;;;20.38;54.33;101500.63;5069317;28;20758;-73
2022/10/28 10:12:39;;;;;;;1.15;1.13;;;;;;;20.74;53.96;101526.88;5058431;28;20583;-72
2022/10/28 10:15:11;;;;;;;0.82;0.82;;;;;;;20.64;52.88;101520.78;5070051;28;20203;-72
2022/10/28 10:17:45;;;;;;;0.65;0.65;;;;;;;20.24;52.10;101456.72;5062666;28;20211;-72
2022/10/28 10:20:14;;;;;;;0.70;0.70;;;;;;;20.57;50.63;101499.72;5064780;28;20219;-71
2022/10/28 10:22:42;;;;;;;1.10;1.10;;;;;;;20.48;50.97;101454.91;5070119;28;20282;-70
2022/10/28 10:25:25;;;;;;;0.90;0.90;;;;;;;20.96;50.66;101523.28;5038077;28;20222;-72
2022/10/28 10:27:52;;;;;;;0.80;0.80;;;;;;;20.69;51.00;101526.03;5057133;28;20228;-71
2022/10/28 10:30:23;;;;;;;0.95;0.95;;;;;;;20.91;51.21;101509.22;5007850;28;20211;-71
2022/10/28 10:32:52;;;;;;;0.80;0.80;;;;;;;21.04;50.89;101504.78;5007911;28;20635;-71
2022/10/28 10:35:23;;;;;;;0.90;0.90;;;;;;;21.06;50.39;101482.78;5007705;28;20734;-72
2022/10/28 10:37:51;;;;;;;0.75;0.75;;;;;;;20.98;49.99;101508.31;5007922;28;20213;-71
2022/10/28 10:40:22;;;;;;;0.82;0.82;;;;;;;20.93;50.50;101503.97;4988052;28;20229;-71
2022/10/28 10:42:50;;;;;;;1.00;1.00;;;;;;;20.76;50.16;101491.72;5002841;28;20221;-71
2022/10/28 10:45:22;;;;;;;0.90;0.90;;;;;;;21.10;49.52;101500.38;5008078;28;20248;-72
2022/10/28 10:48:04;;;;;;;0.90;0.90;;;;;;;21.19;48.11;101500.31;5007948;28;20205;-71
2022/10/28 10:50:33;;;;;;;0.82;0.82;;;;;;;21.17;48.47;101488.03;5007596;28;20243;-72
2022/10/28 10:53:01;;;;;;;1.00;1.00;;;;;;;21.27;47.65;101497.63;5007660;28;20208;-72
2022/10/28 10:55:36;;;;;;;0.90;0.90;;;;;;;21.35;47.52;101471.22;5055322;28;20202;-71
2022/10/28 10:58:05;;;;;;;0.82;0.82;;;;;;;21.25;46.52;101497.66;5073968;28;20194;-71
2022/10/28 11:00:36;;;;;;;0.70;0.70;;;;;;;21.29;47.02;101495.00;5073794;28;20222;-71
2022/10/28 11:03:07;;;;;;;0.85;0.85;;;;;;;21.44;47.11;101493.13;5038182;28;20187;-72
2022/10/28 11:05:34;;;;;;;0.70;0.70;;;;;;;21.40;46.33;101493.19;5074335;28;20201;-71
2022/10/28 11:08:03;;;;;;;1.20;1.10;;;;;;;21.48;46.43;101489.56;5073966;28;20680;-71
2022/10/28 11:10:34;;;;;;;1.38;1.38;;;;;;;21.64;46.31;101491.22;5073522;28;20195;-71
2022/10/28 11:13:04;;;;;;;0.90;0.90;;;;;;;21.76;45.66;101487.59;5073686;28;20263;-72
2022/10/28 11:15:32;;;;;;;0.80;0.80;;;;;;;21.76;45.63;101490.22;5073333;28;20211;-72
2022/10/28 11:18:01;;;;;;;0.70;0.70;;;;;;;21.92;46.51;101489.25;5073319;28;20209;-72
2022/10/28 11:20:42;;;;;;;1.27;1.17;;;;;;;22.09;45.69;101483.81;5073687;28;20229;-72
2022/10/28 11:23:33;;;;;;;0.82;0.82;;;;;;;22.19;45.77;101478.41;5073601;28;20286;-72
2022/10/28 11:26:03;;;;;;;0.90;0.90;;;;;;;22.20;46.33;101480.19;5073068;28;20202;-76
2022/10/28 11:28:52;;;;;;;1.00;1.00;;;;;;;22.32;45.87;101473.00;5073442;28;20203;-73
2022/10/28 11:31:45;;;;;;;0.70;0.70;;;;;;;22.44;45.63;101475.53;5073108;28;20194;-74
2022/10/28 11:34:35;;;;;;;0.90;0.90;;;;;;;22.39;45.02;101474.69;5073024;28;20671;-73